Time;durP1;ratioP1;P1;durP2;ratioP2;P2;SDS_P1;SDS_P2;PMS_P1;PMS_P2;Temp;Humidity;BMP_temperature;BMP_pressure;BME280_temperature;BME280_humidity;BME280_pressure;Samples;Min_cycle;Max_cycle;Signal;HPM_P1;HPM_P2
2021/07/13 00:00:29;;;;;;;2.33;0.98;;;20.00;99.90;;;;;;4930832;29;20064;-83
2021/07/13 00:02:55;;;;;;;2.08;0.70;;;20.00;99.90;;;;;;4941068;29;20232;-83
2021/07/13 00:05:21;;;;;;;2.88;0.63;;;19.90;99.90;;;;;;4939262;29;20501;-83
2021/07/13 00:07:48;;;;;;;2.10;0.70;;;19.80;99.90;;;;;;4940361;29;20031;-83
2021/07/13 00:10:17;;;;;;;1.83;0.60;;;19.80;99.90;;;;;;4939556;29;20125;-83
2021/07/13 00:12:43;;;;;;;1.30;0.60;;;19.70;99.90;;;;;;4936389;29;20056;-83
2021/07/13 00:15:11;;;;;;;3.28;0.70;;;19.70;99.90;;;;;;4937577;29;20439;-83
2021/07/13 00:17:37;;;;;;;1.67;0.80;;;19.80;99.90;;;;;;4923028;29;20024;-81
2021/07/13 00:20:05;;;;;;;1.90;0.38;;;19.70;99.90;;;;;;4922169;29;20088;-82
2021/07/13 00:22:31;;;;;;;3.50;0.60;;;19.70;99.90;;;;;;4936300;29;20103;-81
2021/07/13 00:24:57;;;;;;;2.13;0.50;;;19.60;99.90;;;;;;4921093;29;20038;-82
2021/07/13 00:27:23;;;;;;;1.30;0.55;;;19.60;99.90;;;;;;4920246;29;20024;-83
2021/07/13 00:29:49;;;;;;;2.22;0.60;;;19.60;99.90;;;;;;4934773;29;20031;-81
2021/07/13 00:32:14;;;;;;;1.50;0.50;;;19.60;99.90;;;;;;4920876;29;20029;-82
2021/07/13 00:34:40;;;;;;;1.92;0.60;;;19.60;99.90;;;;;;4920135;29;20032;-82
2021/07/13 00:37:05;;;;;;;2.17;0.63;;;19.60;99.90;;;;;;4934887;29;20080;-81
2021/07/13 00:39:31;;;;;;;1.95;0.73;;;19.60;99.90;;;;;;4918762;29;20024;-81
2021/07/13 00:41:58;;;;;;;2.47;0.68;;;19.50;99.90;;;;;;4919753;29;20075;-83
2021/07/13 00:44:23;;;;;;;1.67;0.60;;;19.40;99.90;;;;;;4939753;29;20034;-82
2021/07/13 00:46:50;;;;;;;3.30;1.00;;;19.30;99.90;;;;;;4941170;29;20415;-83
2021/07/13 00:49:17;;;;;;;3.20;0.90;;;19.40;99.90;;;;;;4958931;28;20107;-83
2021/07/13 00:51:43;;;;;;;2.08;0.80;;;19.30;99.90;;;;;;4956847;28;20043;-81
2021/07/13 00:54:10;;;;;;;3.05;0.77;;;19.30;99.90;;;;;;4958574;28;20086;-82
2021/07/13 00:56:38;;;;;;;3.08;0.93;;;19.30;99.90;;;;;;4954332;28;20027;-83
2021/07/13 00:59:03;;;;;;;2.17;0.70;;;19.30;99.90;;;;;;4948824;29;20064;-82
2021/07/13 01:01:30;;;;;;;2.85;0.75;;;19.30;99.90;;;;;;4955166;29;21049;-80
2021/07/13 01:03:56;;;;;;;2.95;0.98;;;19.20;99.90;;;;;;4947383;29;20105;-83
2021/07/13 01:06:25;;;;;;;2.88;0.80;;;19.10;99.90;;;;;;4959121;28;20023;-83
2021/07/13 01:09:02;;;;;;;3.45;0.80;;;19.20;99.90;;;;;;4946639;28;20043;-82
2021/07/13 01:11:56;;;;;;;2.53;0.50;;;19.00;99.90;;;;;;4934982;29;20036;-82
2021/07/13 01:14:35;;;;;;;1.80;0.80;;;18.90;99.90;;;;;;4935294;29;20028;-81
2021/07/13 01:17:07;;;;;;;2.97;0.60;;;18.90;99.90;;;;;;4950869;28;20031;-82
2021/07/13 01:19:33;;;;;;;1.75;0.60;;;18.90;99.90;;;;;;4943503;28;20023;-80
2021/07/13 01:22:38;;;;;;;3.00;0.70;;;18.80;99.90;;;;;;4954657;29;20130;-82
2021/07/13 01:25:11;;;;;;;2.00;0.60;;;18.80;99.90;;;;;;4884420;29;20072;-82
2021/07/13 01:27:48;;;;;;;3.70;0.85;;;18.80;99.90;;;;;;4880733;29;20029;-83
2021/07/13 01:30:19;;;;;;;3.20;0.93;;;18.60;99.90;;;;;;4907614;29;20513;-82
2021/07/13 01:32:49;;;;;;;3.35;0.60;;;18.60;99.90;;;;;;4938650;29;20024;-83
2021/07/13 01:35:31;;;;;;;2.85;0.80;;;18.60;99.90;;;;;;4938926;29;20379;-83
2021/07/13 01:37:59;;;;;;;2.03;0.70;;;18.50;99.90;;;;;;4939361;29;20028;-83
2021/07/13 01:40:26;;;;;;;2.60;0.80;;;18.60;99.90;;;;;;4938385;29;20071;-83
2021/07/13 01:42:52;;;;;;;3.70;0.75;;;18.60;99.90;;;;;;4946335;29;20099;-83
2021/07/13 01:45:18;;;;;;;3.15;0.85;;;18.60;99.90;;;;;;4946817;29;20403;-83
2021/07/13 01:47:45;;;;;;;3.55;0.82;;;18.60;99.90;;;;;;4942280;29;20504;-83
2021/07/13 01:50:13;;;;;;;4.88;0.70;;;18.60;99.90;;;;;;4945826;29;20031;-84
2021/07/13 01:52:41;;;;;;;4.15;0.50;;;18.50;99.90;;;;;;4928313;29;20043;-83
2021/07/13 01:55:08;;;;;;;4.28;0.50;;;18.50;99.90;;;;;;4940380;29;20028;-84
2021/07/13 01:57:34;;;;;;;4.20;0.80;;;18.50;99.90;;;;;;4924990;29;20027;-84
2021/07/13 02:00:04;;;;;;;4.03;0.70;;;18.50;99.90;;;;;;4922944;29;20024;-84
2021/07/13 02:02:31;;;;;;;4.20;0.80;;;18.50;99.90;;;;;;4937533;29;20133;-84
2021/07/13 02:04:59;;;;;;;4.03;0.93;;;18.50;99.90;;;;;;4938860;29;20102;-84
2021/07/13 02:07:26;;;;;;;4.57;1.15;;;18.50;99.90;;;;;;4938310;29;20047;-84
2021/07/13 02:09:51;;;;;;;2.72;0.45;;;18.50;99.90;;;;;;4926575;29;20036;-83
2021/07/13 02:12:18;;;;;;;1.48;0.60;;;18.50;99.90;;;;;;4928321;29;20103;-82
2021/07/13 02:14:44;;;;;;;2.38;0.70;;;18.40;99.90;;;;;;4939750;29;20035;-83
2021/07/13 02:17:10;;;;;;;2.88;0.70;;;18.40;99.90;;;;;;4940543;29;20095;-83
2021/07/13 02:19:36;;;;;;;3.60;0.68;;;18.50;99.90;;;;;;4921540;29;20035;-83
2021/07/13 02:22:02;;;;;;;3.30;0.60;;;18.30;99.90;;;;;;4938596;29;20027;-84
2021/07/13 02:24:28;;;;;;;2.85;0.50;;;18.30;99.90;;;;;;4940801;29;20034;-83
2021/07/13 02:27:06;;;;;;;3.03;0.60;;;18.20;99.90;;;;;;4940768;29;20114;-82
2021/07/13 02:29:51;;;;;;;4.75;1.00;;;18.10;99.90;;;;;;4950108;29;20090;-82
2021/07/13 02:32:32;;;;;;;7.22;0.80;;;18.10;99.90;;;;;;4935164;29;20028;-83
2021/07/13 02:35:01;;;;;;;4.05;1.02;;;18.00;99.90;;;;;;4951692;29;20027;-82
2021/07/13 02:37:28;;;;;;;6.28;1.60;;;18.00;99.90;;;;;;4940041;29;20039;-82
2021/07/13 02:39:54;;;;;;;5.30;0.65;;;18.10;99.90;;;;;;4934311;29;20118;-83
2021/07/13 02:42:21;;;;;;;6.35;0.90;;;18.10;99.90;;;;;;4935810;29;20024;-82
2021/07/13 02:44:48;;;;;;;3.55;0.90;;;18.10;99.90;;;;;;4923888;29;20483;-82
2021/07/13 02:47:15;;;;;;;3.92;0.73;;;18.10;99.90;;;;;;4932583;29;20028;-83
2021/07/13 02:49:50;;;;;;;5.70;1.00;;;18.10;99.90;;;;;;4917129;29;20111;-83
2021/07/13 02:52:22;;;;;;;4.10;0.82;;;18.10;99.90;;;;;;4917877;29;20063;-83
2021/07/13 02:54:54;;;;;;;3.40;0.68;;;18.00;99.90;;;;;;4917123;29;20360;-83
2021/07/13 02:57:22;;;;;;;3.90;0.80;;;18.00;99.90;;;;;;4931642;29;20036;-84
2021/07/13 02:59:48;;;;;;;4.90;1.00;;;18.00;99.90;;;;;;4925561;29;20032;-83
2021/07/13 03:02:15;;;;;;;4.47;1.00;;;18.10;99.90;;;;;;4936927;29;20034;-84
2021/07/13 03:04:42;;;;;;;3.65;1.10;;;18.10;99.90;;;;;;4938295;29;20047;-83
2021/07/13 03:07:10;;;;;;;4.15;1.05;;;18.10;99.90;;;;;;4936068;29;20040;-83
2021/07/13 03:09:37;;;;;;;3.20;0.90;;;18.20;99.90;;;;;;4950786;28;20032;-82
2021/07/13 03:12:06;;;;;;;3.05;0.93;;;18.20;99.90;;;;;;4952430;29;20110;-84
2021/07/13 03:14:33;;;;;;;3.00;0.70;;;18.20;99.90;;;;;;4948486;29;20163;-84
2021/07/13 03:17:00;;;;;;;1.95;0.57;;;18.30;99.90;;;;;;4957167;29;20086;-82
2021/07/13 03:19:26;;;;;;;3.80;1.10;;;18.20;99.90;;;;;;4951731;28;20479;-83
2021/07/13 03:21:55;;;;;;;2.15;0.70;;;18.10;99.90;;;;;;4937672;29;20040;-84
2021/07/13 03:24:23;;;;;;;2.53;0.50;;;18.10;99.90;;;;;;4923297;29;20028;-84
2021/07/13 03:26:49;;;;;;;2.55;0.88;;;18.10;99.90;;;;;;4949377;28;20027;-83
2021/07/13 03:29:15;;;;;;;1.85;0.52;;;18.00;99.90;;;;;;4962469;28;20038;-83
2021/07/13 03:31:42;;;;;;;1.73;0.70;;;18.00;99.90;;;;;;4960521;29;20053;-84
2021/07/13 03:34:08;;;;;;;1.85;0.80;;;18.00;99.90;;;;;;4950901;28;20044;-84
2021/07/13 03:36:34;;;;;;;1.95;0.80;;;18.10;99.90;;;;;;4938276;29;20118;-84
2021/07/13 03:39:01;;;;;;;1.48;0.60;;;18.10;99.90;;;;;;4924361;29;20035;-83
2021/07/13 03:41:28;;;;;;;2.50;1.00;;;18.10;99.90;;;;;;4925049;29;20028;-84
2021/07/13 03:44:00;;;;;;;3.22;0.80;;;18.10;99.90;;;;;;4935960;29;20038;-84
2021/07/13 03:46:25;;;;;;;3.05;0.85;;;18.10;99.90;;;;;;4963104;28;20036;-84
2021/07/13 03:48:52;;;;;;;3.92;1.27;;;18.10;99.90;;;;;;4961947;29;20038;-84
2021/07/13 03:51:34;;;;;;;2.60;0.93;;;18.00;99.90;;;;;;4962102;29;20031;-84
2021/07/13 03:53:59;;;;;;;3.05;1.10;;;18.00;99.90;;;;;;4939453;29;20051;-83
2021/07/13 03:56:25;;;;;;;3.63;1.20;;;18.00;99.90;;;;;;4937335;29;20032;-83
2021/07/13 03:58:51;;;;;;;4.22;2.17;;;18.00;99.90;;;;;;4934821;29;20439;-83
2021/07/13 04:01:17;;;;;;;3.40;1.40;;;17.90;99.90;;;;;;4937240;29;20417;-84
2021/07/13 04:03:42;;;;;;;3.88;1.83;;;17.90;99.90;;;;;;4968157;23;20129;-84
2021/07/13 04:06:08;;;;;;;7.32;2.72;;;17.90;99.90;;;;;;4956184;29;20060;-84
2021/07/13 04:08:34;;;;;;;6.32;2.83;;;17.90;99.90;;;;;;4955610;29;20350;-85
2021/07/13 04:10:59;;;;;;;5.57;2.70;;;17.90;99.90;;;;;;4955538;29;20043;-84
2021/07/13 04:13:27;;;;;;;7.05;3.60;;;17.80;99.90;;;;;;4970324;28;20027;-84
2021/07/13 04:15:52;;;;;;;5.53;3.20;;;17.80;99.90;;;;;;4955578;28;20741;-84
2021/07/13 04:18:18;;;;;;;6.63;3.90;;;17.90;99.90;;;;;;4946167;28;20058;-83
2021/07/13 04:20:44;;;;;;;7.32;3.42;;;17.80;99.90;;;;;;4958567;28;20023;-84
2021/07/13 04:23:09;;;;;;;6.53;3.30;;;17.90;99.90;;;;;;4954365;29;20034;-84
2021/07/13 04:25:35;;;;;;;6.38;3.45;;;17.90;99.90;;;;;;4939205;29;20031;-84
2021/07/13 04:28:01;;;;;;;6.00;3.28;;;17.90;99.90;;;;;;4956987;29;20035;-84
2021/07/13 04:30:26;;;;;;;5.70;3.33;;;17.90;99.90;;;;;;4938612;29;20041;-84
2021/07/13 04:32:52;;;;;;;6.88;3.80;;;18.00;99.90;;;;;;4939669;28;20031;-84
2021/07/13 04:35:17;;;;;;;5.15;3.17;;;17.90;99.90;;;;;;4939348;29;20090;-84
2021/07/13 04:37:43;;;;;;;6.40;3.28;;;17.90;99.90;;;;;;4939421;29;20023;-84
2021/07/13 04:40:10;;;;;;;6.32;3.90;;;17.90;99.90;;;;;;4956828;29;20023;-84
2021/07/13 04:42:35;;;;;;;6.25;3.22;;;18.00;99.90;;;;;;4955768;29;20027;-84
2021/07/13 04:45:01;;;;;;;5.70;3.50;;;18.00;99.90;;;;;;4950851;29;20038;-83
2021/07/13 04:47:27;;;;;;;5.88;2.42;;;18.10;99.90;;;;;;4956371;29;20027;-84
2021/07/13 04:49:52;;;;;;;4.30;2.50;;;18.20;99.90;;;;;;4951780;29;20399;-84
2021/07/13 04:52:18;;;;;;;3.97;2.00;;;18.20;99.90;;;;;;4942433;29;20058;-84
2021/07/13 04:54:43;;;;;;;6.65;2.38;;;18.20;99.90;;;;;;4939045;29;20416;-85
2021/07/13 04:57:09;;;;;;;3.90;2.13;;;18.30;99.90;;;;;;4948349;29;20506;-85
2021/07/13 04:59:34;;;;;;;5.57;2.50;;;18.30;99.90;;;;;;4935946;29;20028;-85
2021/07/13 05:02:01;;;;;;;4.68;2.70;;;18.30;99.90;;;;;;4937116;29;20137;-84
2021/07/13 05:04:26;;;;;;;5.10;2.80;;;18.30;99.90;;;;;;4950154;29;20039;-84
2021/07/13 05:06:52;;;;;;;4.45;2.28;;;18.30;99.90;;;;;;4954148;29;20421;-84
2021/07/13 05:09:18;;;;;;;4.50;2.42;;;18.30;99.90;;;;;;4935297;29;20063;-85
2021/07/13 05:11:43;;;;;;;4.90;2.20;;;18.40;99.90;;;;;;4944109;29;20023;-85
2021/07/13 05:14:09;;;;;;;4.93;2.40;;;18.50;99.90;;;;;;4935638;29;20189;-85
2021/07/13 05:16:34;;;;;;;7.45;2.33;;;18.50;99.90;;;;;;4936337;29;20505;-85
2021/07/13 05:19:01;;;;;;;4.95;2.67;;;18.40;99.90;;;;;;4951779;29;20027;-85
2021/07/13 05:21:26;;;;;;;4.50;1.90;;;18.40;99.90;;;;;;4953519;29;20031;-85
2021/07/13 05:23:52;;;;;;;4.72;1.90;;;18.40;99.90;;;;;;4938716;29;20030;-85
2021/07/13 05:26:18;;;;;;;4.95;1.88;;;18.50;99.90;;;;;;4969950;28;20030;-85
2021/07/13 05:28:43;;;;;;;4.13;2.00;;;18.60;99.90;;;;;;4954811;28;20584;-85
2021/07/13 05:31:09;;;;;;;5.13;1.85;;;18.70;99.90;;;;;;4929054;29;20100;-85
2021/07/13 05:33:35;;;;;;;4.65;2.22;;;18.80;99.90;;;;;;4947513;29;20077;-85
2021/07/13 05:36:00;;;;;;;5.50;1.90;;;18.80;99.90;;;;;;4951541;29;20327;-85
2021/07/13 05:38:26;;;;;;;3.72;2.22;;;18.80;99.90;;;;;;4951973;29;20493;-85
2021/07/13 05:40:51;;;;;;;5.30;2.22;;;18.70;99.90;;;;;;4950316;28;20024;-85
2021/07/13 05:43:17;;;;;;;3.60;1.98;;;18.80;99.90;;;;;;4956380;28;20492;-85
2021/07/13 05:45:45;;;;;;;6.40;1.80;;;18.90;99.90;;;;;;4955846;28;20027;-83
2021/07/13 05:48:11;;;;;;;3.35;1.70;;;18.80;99.90;;;;;;4956492;28;20031;-84
2021/07/13 05:50:36;;;;;;;3.40;1.80;;;18.80;99.90;;;;;;4926693;29;20598;-84
2021/07/13 05:53:02;;;;;;;4.55;1.52;;;18.90;99.90;;;;;;4945548;28;20033;-83
2021/07/13 05:55:28;;;;;;;4.55;1.60;;;18.90;99.90;;;;;;4962615;28;20122;-84
2021/07/13 05:57:53;;;;;;;4.15;1.65;;;18.80;99.90;;;;;;4959266;28;20361;-84
2021/07/13 06:00:20;;;;;;;7.40;1.63;;;18.90;99.90;;;;;;4941836;28;20031;-83
2021/07/13 06:02:46;;;;;;;3.90;1.95;;;18.90;99.90;;;;;;4944609;28;20158;-83
2021/07/13 06:05:12;;;;;;;3.50;1.77;;;18.70;99.90;;;;;;4951690;28;20045;-84
2021/07/13 06:07:45;;;;;;;2.92;1.55;;;18.50;99.90;;;;;;4953814;28;20023;-83
2021/07/13 06:10:11;;;;;;;3.90;1.80;;;18.40;99.90;;;;;;4935385;28;20034;-84
2021/07/13 06:12:37;;;;;;;4.38;1.85;;;18.40;99.90;;;;;;4950341;28;20189;-83
2021/07/13 06:15:04;;;;;;;4.05;2.15;;;18.30;99.90;;;;;;4954783;29;20382;-83
2021/07/13 06:17:30;;;;;;;3.95;1.65;;;18.40;99.90;;;;;;4942532;29;20027;-83
2021/07/13 06:19:55;;;;;;;4.45;2.00;;;18.40;99.90;;;;;;4946897;28;20231;-83
2021/07/13 06:22:21;;;;;;;4.07;1.80;;;18.30;99.90;;;;;;4957293;29;20024;-83
2021/07/13 06:24:46;;;;;;;3.25;1.85;;;18.40;99.90;;;;;;4954340;29;20027;-83
2021/07/13 06:27:12;;;;;;;4.45;1.55;;;18.50;99.90;;;;;;4953989;29;20134;-83
2021/07/13 06:29:38;;;;;;;2.80;1.25;;;18.60;99.90;;;;;;4951272;29;20178;-83
2021/07/13 06:32:04;;;;;;;3.53;1.50;;;18.60;99.90;;;;;;4953163;29;20031;-83
2021/07/13 06:34:29;;;;;;;3.88;1.50;;;18.70;99.90;;;;;;4952466;28;20031;-83
2021/07/13 06:36:55;;;;;;;4.10;1.42;;;18.80;99.90;;;;;;4964244;28;20061;-84
2021/07/13 06:39:21;;;;;;;4.07;1.30;;;19.00;99.90;;;;;;4943697;28;20190;-84
2021/07/13 06:41:46;;;;;;;2.92;1.58;;;19.10;99.90;;;;;;4940145;28;20023;-83
2021/07/13 06:44:13;;;;;;;4.00;1.77;;;19.20;99.90;;;;;;4951209;29;20027;-84
2021/07/13 06:46:38;;;;;;;3.75;1.55;;;19.20;99.90;;;;;;4940567;29;20027;-83
2021/07/13 06:49:04;;;;;;;3.55;1.63;;;19.20;99.90;;;;;;4949958;29;20050;-83
2021/07/13 06:51:30;;;;;;;4.63;1.60;;;18.90;99.90;;;;;;4951697;29;20429;-85
2021/07/13 06:53:56;;;;;;;4.18;1.52;;;18.90;99.90;;;;;;4951802;28;20258;-84
2021/07/13 06:56:21;;;;;;;5.10;1.77;;;18.70;99.90;;;;;;4962147;28;20035;-85
2021/07/13 06:58:48;;;;;;;3.72;2.03;;;18.70;99.90;;;;;;4969708;28;20031;-85
2021/07/13 07:01:13;;;;;;;4.78;1.98;;;18.70;99.90;;;;;;4954227;29;20122;-85
2021/07/13 07:03:39;;;;;;;3.75;1.55;;;18.60;99.90;;;;;;4955009;28;20036;-85
2021/07/13 07:06:05;;;;;;;4.80;1.50;;;18.60;99.90;;;;;;4936996;29;20027;-85
2021/07/13 07:08:31;;;;;;;4.93;1.48;;;18.50;99.90;;;;;;4934461;29;20024;-85
2021/07/13 07:10:57;;;;;;;3.85;1.67;;;18.50;99.90;;;;;;4918539;29;20127;-84
2021/07/13 07:13:23;;;;;;;3.60;1.73;;;18.50;99.90;;;;;;4963918;28;20067;-85
2021/07/13 07:15:48;;;;;;;6.43;1.80;;;18.50;99.90;;;;;;4937752;29;20066;-84
2021/07/13 07:18:14;;;;;;;2.80;1.50;;;18.60;99.90;;;;;;4938080;29;20034;-84
2021/07/13 07:20:40;;;;;;;5.38;2.22;;;18.70;99.90;;;;;;4937954;29;20417;-84
2021/07/13 07:23:06;;;;;;;6.90;2.30;;;18.70;99.90;;;;;;4955655;29;20050;-83
2021/07/13 07:25:31;;;;;;;4.53;1.60;;;18.70;99.90;;;;;;4955719;29;20362;-84
2021/07/13 07:28:00;;;;;;;3.35;1.50;;;18.60;99.90;;;;;;4937557;29;20035;-84
2021/07/13 07:30:28;;;;;;;4.63;2.00;;;18.70;99.90;;;;;;4941758;28;20497;-82
2021/07/13 07:32:54;;;;;;;3.85;1.55;;;18.70;99.90;;;;;;4958499;29;20024;-82
2021/07/13 07:35:19;;;;;;;4.85;1.95;;;18.70;99.90;;;;;;4958825;28;20031;-82
2021/07/13 07:37:47;;;;;;;7.00;2.00;;;18.70;99.90;;;;;;4948559;29;20130;-82
2021/07/13 07:40:17;;;;;;;3.10;1.58;;;18.70;99.90;;;;;;4957220;29;20398;-82
2021/07/13 07:42:44;;;;;;;4.30;1.20;;;18.70;99.90;;;;;;4958838;28;20043;-82
2021/07/13 07:45:10;;;;;;;2.33;1.15;;;18.70;99.90;;;;;;4950740;29;20035;-82
2021/07/13 07:47:35;;;;;;;2.45;1.15;;;18.60;99.90;;;;;;4956484;29;20035;-84
2021/07/13 07:50:02;;;;;;;6.43;1.48;;;18.70;99.90;;;;;;4937038;29;20114;-82
2021/07/13 07:52:28;;;;;;;5.65;1.75;;;18.70;99.90;;;;;;4956634;28;20145;-82
2021/07/13 07:54:54;;;;;;;4.82;1.75;;;18.70;99.90;;;;;;4947249;29;20522;-83
2021/07/13 07:57:19;;;;;;;3.65;1.45;;;18.70;99.90;;;;;;4934730;29;20094;-83
2021/07/13 07:59:45;;;;;;;2.97;1.00;;;18.70;99.90;;;;;;4944662;29;20058;-84
2021/07/13 08:02:10;;;;;;;3.88;1.20;;;18.70;99.90;;;;;;4942006;29;20027;-84
2021/07/13 08:04:36;;;;;;;4.28;1.38;;;18.60;99.90;;;;;;4936168;29;20498;-81
2021/07/13 08:07:02;;;;;;;5.20;1.30;;;18.70;99.90;;;;;;4939163;29;20062;-81
2021/07/13 08:09:28;;;;;;;3.10;0.93;;;18.70;99.90;;;;;;4922333;29;20038;-81
2021/07/13 08:11:53;;;;;;;3.08;1.25;;;18.70;99.90;;;;;;4950310;28;20023;-84
2021/07/13 08:14:19;;;;;;;4.00;1.30;;;18.70;99.90;;;;;;4948362;28;20029;-84
2021/07/13 08:16:45;;;;;;;4.05;1.02;;;18.80;99.90;;;;;;4944393;29;20031;-84
2021/07/13 08:19:11;;;;;;;2.92;1.00;;;18.70;99.90;;;;;;4954339;29;20023;-84
2021/07/13 08:21:37;;;;;;;2.15;0.90;;;18.70;99.90;;;;;;4947242;29;20036;-84
2021/07/13 08:24:03;;;;;;;2.95;1.30;;;18.70;99.90;;;;;;4933973;29;20060;-84
2021/07/13 08:26:29;;;;;;;3.38;0.90;;;18.60;99.90;;;;;;4934184;29;20039;-84
2021/07/13 08:28:54;;;;;;;2.97;1.10;;;18.60;99.90;;;;;;4938698;29;20074;-82
2021/07/13 08:31:20;;;;;;;5.20;1.20;;;18.70;99.90;;;;;;4956248;29;20382;-82
2021/07/13 08:33:46;;;;;;;2.33;1.02;;;18.70;99.90;;;;;;4956641;29;20065;-82
2021/07/13 08:36:11;;;;;;;5.03;1.40;;;18.60;99.90;;;;;;4947127;29;20051;-81
2021/07/13 08:38:37;;;;;;;2.90;1.10;;;18.60;99.90;;;;;;4947818;29;20137;-82
2021/07/13 08:41:03;;;;;;;3.90;1.17;;;18.60;99.90;;;;;;4938382;29;20030;-81
2021/07/13 08:43:29;;;;;;;2.90;1.17;;;18.50;99.90;;;;;;4949314;29;20077;-82
2021/07/13 08:45:56;;;;;;;2.75;1.20;;;18.60;99.90;;;;;;4955631;29;20110;-83
2021/07/13 08:48:23;;;;;;;2.22;1.05;;;18.50;99.90;;;;;;4952120;29;20027;-83
2021/07/13 08:50:55;;;;;;;2.95;1.35;;;18.60;99.90;;;;;;4953448;29;20027;-83
2021/07/13 08:53:21;;;;;;;2.80;1.30;;;18.60;99.90;;;;;;4953031;29;20031;-83
2021/07/13 08:55:47;;;;;;;4.13;1.27;;;18.60;99.90;;;;;;4935599;29;20035;-84
2021/07/13 08:58:15;;;;;;;4.05;1.40;;;18.60;99.90;;;;;;4953615;29;20028;-84
2021/07/13 09:00:42;;;;;;;3.65;1.25;;;18.50;99.90;;;;;;4953096;29;20015;-84
2021/07/13 09:03:18;;;;;;;3.47;1.60;;;18.50;99.90;;;;;;4952573;28;20035;-83
2021/07/13 09:05:57;;;;;;;5.47;1.75;;;18.50;99.90;;;;;;4933175;29;20027;-83
2021/07/13 09:08:24;;;;;;;3.92;1.50;;;18.50;99.90;;;;;;4953366;29;20046;-83
2021/07/13 09:11:00;;;;;;;2.80;1.13;;;18.40;99.90;;;;;;4952095;29;20462;-83
2021/07/13 09:13:27;;;;;;;4.57;1.90;;;18.40;99.90;;;;;;4946432;28;20038;-83
2021/07/13 09:15:58;;;;;;;4.53;1.83;;;18.30;99.90;;;;;;4935198;29;20057;-83
2021/07/13 09:18:35;;;;;;;5.40;2.17;;;18.20;99.90;;;;;;4952341;29;20023;-82
2021/07/13 09:21:32;;;;;;;5.85;2.10;;;18.10;99.90;;;;;;4932686;29;20042;-82
2021/07/13 09:24:05;;;;;;;2.08;0.60;;;18.00;99.90;;;;;;4931697;29;20130;-80
2021/07/13 09:26:55;;;;;;;1.42;0.55;;;17.70;99.90;;;;;;4952903;29;20508;-81
2021/07/13 09:29:39;;;;;;;2.63;0.60;;;17.60;99.90;;;;;;4952772;29;20038;-81
2021/07/13 09:32:20;;;;;;;1.42;0.43;;;17.50;99.90;;;;;;4952112;29;20015;-83
2021/07/13 09:34:48;;;;;;;2.95;0.20;;;17.40;99.90;;;;;;4950668;29;20027;-83
2021/07/13 09:37:31;;;;;;;0.63;0.10;;;17.30;99.90;;;;;;4934097;29;20070;-81
2021/07/13 09:40:14;;;;;;;0.90;0.20;;;17.20;99.90;;;;;;4952923;29;20102;-80
2021/07/13 09:42:52;;;;;;;1.35;0.20;;;17.10;99.90;;;;;;4949979;28;20540;-82
2021/07/13 09:45:32;;;;;;;2.63;0.17;;;17.10;99.90;;;;;;4932111;29;20119;-82
2021/07/13 09:48:09;;;;;;;1.50;0.13;;;16.90;99.90;;;;;;4949400;29;20034;-82
2021/07/13 09:50:39;;;;;;;0.60;0.15;;;16.80;99.90;;;;;;4932248;29;20118;-82
2021/07/13 09:53:26;;;;;;;0.40;0.10;;;16.80;99.90;;;;;;4951743;29;20166;-82
2021/07/13 09:55:56;;;;;;;2.40;0.10;;;16.70;99.90;;;;;;4950298;29;20090;-81
2021/07/13 09:58:23;;;;;;;0.47;0.10;;;16.70;99.90;;;;;;4949955;29;20046;-82
2021/07/13 10:00:57;;;;;;;0.30;0.10;;;16.60;99.90;;;;;;4954972;29;20105;-81
2021/07/13 10:03:23;;;;;;;0.70;0.10;;;16.70;99.90;;;;;;4956063;28;20023;-82
2021/07/13 10:05:53;;;;;;;2.17;0.10;;;16.70;99.90;;;;;;4934708;29;20034;-84
2021/07/13 10:08:19;;;;;;;0.32;0.10;;;16.70;99.90;;;;;;4950593;29;20508;-83
2021/07/13 10:10:46;;;;;;;1.75;0.15;;;16.80;99.90;;;;;;4933672;29;20031;-84
2021/07/13 10:13:17;;;;;;;3.08;0.10;;;16.80;99.90;;;;;;4927754;29;20091;-84
2021/07/13 10:15:48;;;;;;;1.55;0.47;;;16.90;99.90;;;;;;4950732;29;20495;-84
2021/07/13 10:18:14;;;;;;;0.65;0.10;;;16.80;99.90;;;;;;4933223;29;20029;-84
2021/07/13 10:20:42;;;;;;;1.38;0.10;;;16.80;99.90;;;;;;4946791;29;20031;-84
2021/07/13 10:23:10;;;;;;;0.98;0.10;;;16.80;99.90;;;;;;4933397;29;20055;-84
2021/07/13 10:25:37;;;;;;;1.10;0.17;;;16.80;99.90;;;;;;4951422;29;20058;-84
2021/07/13 10:28:04;;;;;;;0.60;0.20;;;16.80;99.90;;;;;;4928409;29;20028;-83
2021/07/13 10:30:29;;;;;;;0.75;0.10;;;16.80;99.90;;;;;;4934008;29;20027;-83
2021/07/13 10:32:56;;;;;;;0.20;0.05;;;16.90;99.90;;;;;;4950399;29;20504;-83
2021/07/13 10:35:29;;;;;;;0.85;0.20;;;16.90;99.90;;;;;;4931175;29;20031;-83
2021/07/13 10:37:59;;;;;;;0.00;0.00;;;16.70;99.90;;;;;;4950367;29;20111;-84
2021/07/13 10:40:24;;;;;;;0.77;0.08;;;16.20;99.90;;;;;;4950429;29;20019;-83
2021/07/13 10:42:51;;;;;;;0.63;0.03;;;16.00;99.90;;;;;;4949751;29;20537;-83
2021/07/13 10:45:42;;;;;;;0.73;0.10;;;16.00;99.90;;;;;;4949014;29;20035;-83
2021/07/13 10:48:20;;;;;;;1.10;0.25;;;15.90;99.90;;;;;;4932379;29;20027;-83
2021/07/13 10:50:53;;;;;;;1.77;0.30;;;15.90;99.90;;;;;;4933800;29;20015;-83
2021/07/13 10:53:28;;;;;;;0.85;0.10;;;15.70;99.90;;;;;;4933684;29;20024;-83
2021/07/13 10:55:56;;;;;;;1.50;0.10;;;15.70;99.90;;;;;;4950152;29;20573;-83
2021/07/13 10:58:23;;;;;;;0.95;0.00;;;15.70;99.90;;;;;;4951616;28;20657;-83
2021/07/13 11:00:56;;;;;;;0.63;0.08;;;15.80;99.90;;;;;;4951876;29;20110;-83
2021/07/13 11:03:35;;;;;;;0.50;0.20;;;15.80;99.90;;;;;;4943465;28;20026;-83
2021/07/13 11:06:04;;;;;;;3.33;0.10;;;16.00;99.90;;;;;;4958782;28;20030;-83
2021/07/13 11:08:42;;;;;;;1.20;0.20;;;16.10;99.90;;;;;;4948735;29;20082;-84
2021/07/13 11:11:09;;;;;;;1.25;0.10;;;16.30;99.90;;;;;;4947120;29;20051;-84
2021/07/13 11:13:36;;;;;;;0.50;0.10;;;16.20;99.90;;;;;;4934857;29;20441;-83
2021/07/13 11:16:02;;;;;;;0.45;0.17;;;16.20;99.90;;;;;;4932823;29;20095;-83
2021/07/13 11:18:29;;;;;;;0.40;0.10;;;16.20;99.90;;;;;;4930472;29;20035;-84
2021/07/13 11:20:55;;;;;;;0.30;0.00;;;16.10;99.90;;;;;;4950162;28;20028;-84
2021/07/13 11:23:27;;;;;;;0.52;0.10;;;16.20;99.90;;;;;;4931234;29;20033;-84
2021/07/13 11:26:07;;;;;;;0.15;0.00;;;16.10;99.90;;;;;;4932613;29;20429;-83
2021/07/13 11:28:33;;;;;;;1.25;0.10;;;15.90;99.90;;;;;;4949720;28;20161;-84
2021/07/13 11:30:59;;;;;;;0.10;0.00;;;16.10;99.90;;;;;;4930618;29;20038;-84
2021/07/13 11:33:27;;;;;;;0.20;0.13;;;16.00;99.90;;;;;;4922140;29;20027;-84
2021/07/13 11:35:58;;;;;;;0.30;0.10;;;16.00;99.90;;;;;;4935424;29;20027;-84
2021/07/13 11:38:43;;;;;;;0.98;0.10;;;15.90;99.90;;;;;;4934759;29;20027;-84
2021/07/13 11:41:14;;;;;;;0.50;0.10;;;15.80;99.90;;;;;;4953022;29;20485;-84
2021/07/13 11:43:40;;;;;;;1.73;0.10;;;15.80;99.90;;;;;;4954186;29;20019;-84
2021/07/13 11:46:14;;;;;;;0.57;0.10;;;15.80;99.90;;;;;;4935671;29;20035;-84
2021/07/13 11:48:55;;;;;;;1.58;0.20;;;15.90;99.90;;;;;;4954307;29;20083;-84
2021/07/13 11:51:34;;;;;;;1.48;0.10;;;15.90;99.90;;;;;;4933629;29;20043;-85
2021/07/13 11:54:21;;;;;;;2.97;0.05;;;15.90;99.90;;;;;;4937404;28;20034;-84
2021/07/13 11:56:52;;;;;;;0.85;0.20;;;15.90;99.90;;;;;;4954688;29;20023;-85
2021/07/13 11:59:19;;;;;;;1.98;0.17;;;16.00;99.90;;;;;;4953536;29;20042;-85
2021/07/13 12:01:54;;;;;;;3.55;0.20;;;16.00;99.90;;;;;;4950754;29;20023;-85
2021/07/13 12:04:21;;;;;;;0.85;0.08;;;16.00;99.90;;;;;;4953313;28;20091;-82
2021/07/13 12:06:51;;;;;;;0.30;0.10;;;16.00;99.90;;;;;;4938818;28;20081;-83
2021/07/13 12:09:23;;;;;;;0.20;0.00;;;16.00;99.90;;;;;;4953267;28;20027;-85
2021/07/13 12:11:50;;;;;;;0.10;0.00;;;16.20;99.90;;;;;;4947489;28;20070;-82
2021/07/13 12:14:18;;;;;;;0.88;0.10;;;16.20;99.90;;;;;;4944073;28;20614;-82
2021/07/13 12:16:45;;;;;;;2.47;0.10;;;16.30;99.90;;;;;;4941545;29;20370;-84
2021/07/13 12:19:20;;;;;;;0.35;0.10;;;16.40;99.90;;;;;;4958657;28;20027;-83
2021/07/13 12:21:55;;;;;;;0.43;0.20;;;16.40;99.90;;;;;;4940470;28;20061;-85
2021/07/13 12:24:34;;;;;;;0.52;0.10;;;16.40;99.90;;;;;;4942387;29;20510;-84
2021/07/13 12:27:02;;;;;;;1.27;0.13;;;16.40;99.90;;;;;;4939031;29;20035;-83
2021/07/13 12:29:36;;;;;;;0.38;0.10;;;16.30;99.90;;;;;;4955346;28;20030;-83
2021/07/13 12:32:04;;;;;;;0.82;0.10;;;16.20;99.90;;;;;;4938780;28;20461;-82
2021/07/13 12:34:38;;;;;;;0.80;0.17;;;16.30;99.90;;;;;;4941618;29;20034;-82
2021/07/13 12:37:17;;;;;;;1.33;0.10;;;16.40;99.90;;;;;;4953231;28;20615;-82
2021/07/13 12:39:45;;;;;;;1.15;0.20;;;16.30;99.90;;;;;;4956755;29;20030;-83
2021/07/13 12:42:24;;;;;;;1.83;0.10;;;16.60;99.90;;;;;;4942428;29;20023;-83
2021/07/13 12:44:52;;;;;;;0.65;0.20;;;16.60;99.90;;;;;;4940074;29;20506;-82
2021/07/13 12:47:22;;;;;;;0.93;0.10;;;16.70;99.90;;;;;;4963061;28;20035;-82
2021/07/13 12:50:09;;;;;;;0.30;0.10;;;16.70;99.90;;;;;;4963677;28;20119;-83
2021/07/13 12:52:37;;;;;;;0.55;0.10;;;16.80;99.90;;;;;;4955241;29;20036;-83
2021/07/13 12:55:15;;;;;;;0.95;0.25;;;17.00;99.90;;;;;;4955966;28;20054;-84